Terminal Aerodrome Forecast
Issued by NWS Pueblo, CO

Home | Current Version | Previous Version | Text Only | Print | Product List | Glossary On
Versions: 1 2 3 4 5 6 7 8 9 10 11 12 13 14 15 16 17 18 19 20 21
000
FTUS45 KPUB 210523
TAFPUB
TAF
KPUB 210523Z 2106/2206 30015KT P6SM SCT100 BKN150
     FM210800 29010KT P6SM SCT120 BKN150
     FM211200 VRB05KT P6SM SCT120 BKN150
     FM211900 05010KT P6SM SCT120 SCT200
     FM212200 04012KT P6SM VCTS SCT100CB BKN150
     FM220300 33012KT P6SM SCT100 BKN150=

USA.gov is the U.S. government's official web portal to all federal, state and local government web resources and services.